KCPR

Casper / Natrona County International Airport

Casper, Wyoming, USA
METAR KCPR 201853Z 21015KT 10SM CLR 17/M02 A3034 RMK AO2 SLP255 T01721017
Observed Flight Rules
Oct-20 @ 18:53 UTC (35 minutes ago) Visual Flight Rules
Wind Visibility Clouds
210° at 15 knots 10 miles
  • Clear skies
Temperatures Readings
Current 17°C / 63°F
Dewpoint -2°C / 28°F
Humidity 27%
Altimeter 30.34" Hg
Pressure 1025.5 hPa
Elevation 1621
METAR KCPR 201853Z 21015KT 10SM CLR 17/M02 A3034 RMK AO2 SLP255 T01721017
Observed Flight Rules
Oct-20 @ 18:53 UTC
(35 minutes ago)
VFR
Wind Visibility
210° at 15 knots 10 miles
Clouds
  • Clear skies
Temperature Dewpoint
17°C / 63°F -2°C / 28°F
Humidity Altimeter Pressure
27% 30.34" Hg 1025.5 hPa